메인 페이지
METAR-TAF:

METAR-TAF

공항 :

Altus Air Force Base

Altus, 오클라호마, 미국

위도: 34-39N, 경도: 099-16W, 고도: 420m

현재 날씨관측

예보는 1 시간 26분 전, 15:23시(UTC)에 발표되었습니다.
남남동6kt
온도 5°C
습도 93%
기압 1011 hPa
시정: 9.7km
고도 400ft 상공 구름 조금
고도 7000ft 상공 구름 보통
고도 10000ft 상공 흐림
박무

METAR: KLTS 191523Z 16006KT 6SM BR FEW004 SCT070 OVC100 05/04 A2984 RMK AO2A SLP108 $

시각: 10:49 (16:49 UTC)

예보

예보는 1 시간 10분 전, 15:39시(UTC)에 발표되었습니다.
예보 대상 시간: 19일 15시부터 20일 15시까지 (UTC)
남남동6kt
시정 10km 이상
고도 7000ft 상공 구름 많음
일시적
19일 15시부터 19일 18시까지 (UTC)
시정: 9000m
고도 500ft 상공 구름 많음
약한이슬비
전환 중
19일 17시부터 19일 18시까지 (UTC)
6kt
시정 10km 이상
고도 2000ft 상공 구름 많음
고도 8000ft 상공 흐림
전환 중
19일 21시부터 19일 22시까지 (UTC)
북서9kt
시정 10km 이상
고도 5500ft 상공 구름 조금
고도 22000ft 상공 구름 보통
전환 중
20일 11시부터 20일 12시까지 (UTC)
북북서10kt, 순간 최대 풍속 15kt
시정 10km 이상
맑음

TAF: KLTS 191539Z 1915/2015 15006KT 9999 BKN070 QNH2980INS TEMPO 1915/1918 9000 -DZ BKN005 BECMG 1917/1918 28006KT 9999 BKN020 OVC080 QNH2974INS BECMG 1921/1922 32009KT 9999 FEW055 SCT220 QNH2978INS BECMG 2011/2012 34010G15KT 9999 SKC QNH3000INS TX14/1921Z TN03/2011Z

4,000개 이상의 공항 관측 자료 및 예보 (METAR 및 TAF 보고).

지도상에서 검색 가능한 기상관측소가 노란 점과 빨간 점으로 표시되어 있습니다.

기상관측소 명을 보려면 표시 위로 마우스를 이동하세요.

날씨 관측과 예보를 보려면 클릭하세요.

지도 변경 : 확대하려면 엑스 표시가 있는 녹색 버튼, 축소하려면 빼기 표시가 있는 녹색 버튼, 다음 페이지의 지도를 보려면 녹색 화살표를 클릭하세요.


METAR-TAF: